createdAt,value
2023-03-02T00:00:43.240Z,46.41
2023-03-02T00:01:43.237Z,50.11
2023-03-02T00:04:47.137Z,41.73
2023-03-02T00:05:47.068Z,42.86
2023-03-02T00:07:23.371Z,45.28
2023-03-02T00:07:47.077Z,48.02
2023-03-02T00:08:47.073Z,45.76
2023-03-02T00:09:47.027Z,45.12
2023-03-02T00:10:47.041Z,45.76
2023-03-02T00:11:47.027Z,45.60
2023-03-02T00:12:47.002Z,44.96
2023-03-02T00:13:46.981Z,46.41
2023-03-02T00:14:46.998Z,43.67
2023-03-02T00:15:46.997Z,44.79
2023-03-02T00:16:46.987Z,45.76
2023-03-02T00:17:46.945Z,46.57
2023-03-02T00:18:46.928Z,43.99
2023-03-02T00:19:46.988Z,45.44
2023-03-02T00:20:46.899Z,46.08
2023-03-02T00:21:46.917Z,44.96
2023-03-02T00:22:46.919Z,45.28
2023-03-02T00:23:46.870Z,46.41
2023-03-02T00:24:46.898Z,46.08
2023-03-02T00:25:46.866Z,46.57
2023-03-02T00:26:46.881Z,44.96
2023-03-02T00:27:46.849Z,44.31
2023-03-02T00:28:46.849Z,45.12
2023-03-02T00:29:46.840Z,43.18
2023-03-02T00:30:46.825Z,43.34
2023-03-02T00:31:46.859Z,44.15
2023-03-02T00:32:46.820Z,47.05
2023-03-02T00:33:46.837Z,43.99
2023-03-02T00:34:46.782Z,44.63
2023-03-02T00:35:46.845Z,45.28
2023-03-02T00:36:46.745Z,45.44
2023-03-02T00:37:46.742Z,45.60
2023-03-02T00:38:46.749Z,44.79
2023-03-02T00:39:46.775Z,44.15
2023-03-02T00:40:46.687Z,44.47
2023-03-02T00:41:46.726Z,44.63
2023-03-02T00:42:46.717Z,45.44
2023-03-02T00:43:46.686Z,43.67
2023-03-02T00:44:46.672Z,45.60
2023-03-02T00:45:46.662Z,46.08
2023-03-02T00:46:46.764Z,44.96
2023-03-02T00:47:46.653Z,43.83
2023-03-02T00:48:46.647Z,44.79
2023-03-02T00:49:46.649Z,46.41
2023-03-02T00:50:46.619Z,44.79
2023-03-02T00:51:46.593Z,43.67
2023-03-02T00:52:46.607Z,44.15
2023-03-02T00:53:46.615Z,44.15
2023-03-02T00:54:46.562Z,44.79
2023-03-02T00:55:46.535Z,44.63
2023-03-02T00:56:46.526Z,46.57
2023-03-02T00:57:46.535Z,46.57
2023-03-02T00:58:46.519Z,48.66
2023-03-02T00:59:46.539Z,48.02
2023-03-02T01:00:46.538Z,46.25
2023-03-02T01:01:46.473Z,44.63
2023-03-02T01:02:46.646Z,45.44
2023-03-02T01:03:46.463Z,44.96
2023-03-02T01:04:46.497Z,45.12
2023-03-02T01:05:46.443Z,43.99
2023-03-02T01:06:46.434Z,44.31
2023-03-02T01:07:46.413Z,43.51
2023-03-02T01:08:46.433Z,43.83
2023-03-02T01:09:46.424Z,44.79
2023-03-02T01:10:46.383Z,43.67
2023-03-02T01:11:46.378Z,42.86
2023-03-02T01:12:46.399Z,43.67
2023-03-02T01:13:46.365Z,43.34
2023-03-02T01:14:46.437Z,43.34
2023-03-02T01:15:46.410Z,43.34
2023-03-02T01:16:46.338Z,55.75
2023-03-02T01:17:46.327Z,50.92
2023-03-02T01:18:46.339Z,43.51
2023-03-02T01:19:46.338Z,43.67
2023-03-02T01:20:46.279Z,42.86
2023-03-02T01:21:46.258Z,42.86
2023-03-02T01:22:46.290Z,43.02
2023-03-02T01:23:46.284Z,43.34
2023-03-02T01:24:46.266Z,44.63
2023-03-02T01:25:46.267Z,43.83
2023-03-02T01:26:46.224Z,44.15
2023-03-02T01:27:46.249Z,43.83
2023-03-02T01:28:46.241Z,43.51
2023-03-02T01:29:46.219Z,43.99
2023-03-02T01:30:46.247Z,43.99
2023-03-02T01:31:46.259Z,44.47
2023-03-02T01:32:46.250Z,44.63
2023-03-02T01:33:46.169Z,44.47
2023-03-02T01:34:46.184Z,42.86
2023-03-02T01:35:46.190Z,43.67
2023-03-02T01:36:46.170Z,43.02
2023-03-02T01:37:46.169Z,43.67
2023-03-02T01:38:46.177Z,45.28
2023-03-02T01:39:46.122Z,45.12
2023-03-02T01:40:46.141Z,44.96
2023-03-02T01:41:46.130Z,58.01
2023-03-02T01:42:46.077Z,43.83
2023-03-02T01:43:46.110Z,43.18
2023-03-02T01:44:46.048Z,45.12
2023-03-02T01:45:46.089Z,44.79
2023-03-02T01:46:46.021Z,43.99
2023-03-02T01:47:46.039Z,43.02
2023-03-02T01:48:45.995Z,42.54
2023-03-02T01:49:46.014Z,42.22
2023-03-02T01:50:45.991Z,43.83
2023-03-02T01:51:45.995Z,43.51
2023-03-02T01:52:45.971Z,42.54
2023-03-02T01:53:46.051Z,42.38
2023-03-02T01:54:45.929Z,41.41
2023-03-02T01:55:46.015Z,42.38
2023-03-02T01:56:45.924Z,41.73
2023-03-02T01:57:45.935Z,43.51
2023-03-02T01:58:45.881Z,43.02
2023-03-02T01:59:45.877Z,43.67
2023-03-02T02:00:45.959Z,43.34
2023-03-02T02:01:45.918Z,41.89
2023-03-02T02:02:45.876Z,41.73
2023-03-02T02:03:45.897Z,42.38
2023-03-02T02:04:45.857Z,42.38
2023-03-02T02:05:45.836Z,43.34
2023-03-02T02:06:45.833Z,42.38
2023-03-02T02:07:45.816Z,42.54
2023-03-02T02:08:45.806Z,41.73
2023-03-02T02:09:45.771Z,44.15
2023-03-02T02:10:45.820Z,40.93
2023-03-02T02:11:45.783Z,40.61
2023-03-02T02:12:45.759Z,41.09
2023-03-02T02:13:45.773Z,41.09
2023-03-02T02:14:45.741Z,42.38
2023-03-02T02:15:45.735Z,41.57
2023-03-02T02:16:45.768Z,42.22
2023-03-02T02:17:45.745Z,42.86
2023-03-02T02:18:45.728Z,43.51
2023-03-02T02:19:45.717Z,63.33
2023-03-02T02:20:45.723Z,42.38
2023-03-02T02:21:45.721Z,43.18
2023-03-02T02:22:45.651Z,43.18
2023-03-02T02:23:45.623Z,43.18
2023-03-02T02:24:45.620Z,43.34
2023-03-02T02:25:45.672Z,43.99
2023-03-02T02:26:45.654Z,42.70
2023-03-02T02:27:45.598Z,42.86
2023-03-02T02:28:45.595Z,43.99
2023-03-02T02:29:45.559Z,44.63
2023-03-02T02:30:45.621Z,60.75
2023-03-02T02:31:45.599Z,43.51
2023-03-02T02:32:45.623Z,45.76
2023-03-02T02:33:45.532Z,59.30
2023-03-02T02:34:45.520Z,48.34
2023-03-02T02:35:45.584Z,57.52
2023-03-02T02:36:45.505Z,43.02
2023-03-02T02:37:45.501Z,45.28
2023-03-02T02:38:45.481Z,45.28
2023-03-02T02:39:45.483Z,44.47
2023-03-02T02:40:45.483Z,44.79
2023-03-02T02:41:45.501Z,43.67
2023-03-02T02:42:45.426Z,43.67
2023-03-02T02:43:45.444Z,42.70
2023-03-02T02:44:45.474Z,44.15
2023-03-02T02:45:45.458Z,43.51
2023-03-02T02:46:45.395Z,43.02
2023-03-02T02:47:45.368Z,42.38
2023-03-02T02:48:45.360Z,42.38
2023-03-02T02:49:45.357Z,43.51
2023-03-02T02:50:45.350Z,43.02
2023-03-02T02:51:45.364Z,43.99
2023-03-02T02:52:45.314Z,43.18
2023-03-02T02:53:45.318Z,45.12
2023-03-02T02:54:45.300Z,44.31
2023-03-02T02:55:45.296Z,43.51
2023-03-02T02:56:45.305Z,43.18
2023-03-02T02:57:45.292Z,43.18
2023-03-02T02:58:45.261Z,43.02
2023-03-02T02:59:45.268Z,59.62
2023-03-02T03:00:45.257Z,60.10
2023-03-02T03:01:45.321Z,44.15
2023-03-02T03:02:45.255Z,59.62
2023-03-02T03:03:46.503Z,45.12
2023-03-02T03:04:46.469Z,44.31
2023-03-02T03:05:47.461Z,63.00
2023-03-02T03:06:46.458Z,45.92
2023-03-02T03:07:46.401Z,43.51
2023-03-02T03:08:46.417Z,43.99
2023-03-02T03:09:46.383Z,44.31
2023-03-02T03:10:46.361Z,44.96
2023-03-02T03:11:46.416Z,43.34
2023-03-02T03:12:46.391Z,44.15
2023-03-02T03:13:47.376Z,43.83
2023-03-02T03:14:46.328Z,43.02
2023-03-02T03:15:46.350Z,43.51
2023-03-02T03:16:46.500Z,43.18
2023-03-02T03:17:46.331Z,43.18
2023-03-02T03:18:46.260Z,45.12
2023-03-02T03:19:46.275Z,43.99
2023-03-02T03:20:46.323Z,44.47
2023-03-02T03:21:46.265Z,44.79
2023-03-02T03:22:46.288Z,60.91
2023-03-02T03:23:46.215Z,44.47
2023-03-02T03:24:46.214Z,44.47
2023-03-02T03:25:46.216Z,44.96
2023-03-02T03:26:46.237Z,63.33
2023-03-02T03:27:46.215Z,44.96
2023-03-02T03:28:46.265Z,58.01
2023-03-02T03:29:46.172Z,43.99
2023-03-02T03:30:46.206Z,44.79
2023-03-02T03:31:46.210Z,45.92
2023-03-02T03:32:46.226Z,46.41
2023-03-02T03:33:46.182Z,45.76
2023-03-02T03:34:46.114Z,45.44
2023-03-02T03:35:46.218Z,58.81
2023-03-02T03:36:46.155Z,44.63
2023-03-02T03:37:46.130Z,46.41
2023-03-02T03:38:46.138Z,46.41
2023-03-02T03:39:46.125Z,46.25
2023-03-02T03:40:46.131Z,45.44
2023-03-02T03:41:46.159Z,64.13
2023-03-02T03:42:46.041Z,45.60
2023-03-02T03:43:46.069Z,45.60
2023-03-02T03:44:46.064Z,46.08
2023-03-02T03:45:46.080Z,46.89
2023-03-02T03:46:46.055Z,59.14
2023-03-02T03:47:46.073Z,44.63
2023-03-02T03:48:46.028Z,49.79
2023-03-02T03:49:45.982Z,47.05
2023-03-02T03:50:46.034Z,46.41
2023-03-02T03:51:45.999Z,45.76
2023-03-02T03:52:45.998Z,45.92
2023-03-02T03:53:47.031Z,46.25
2023-03-02T03:54:45.914Z,45.76
2023-03-02T03:55:46.027Z,49.47
2023-03-02T03:56:45.954Z,61.55
2023-03-02T03:57:45.886Z,59.78
2023-03-02T03:58:45.967Z,43.67
2023-03-02T03:59:45.868Z,44.79
2023-03-02T04:00:45.881Z,44.79
2023-03-02T04:01:45.976Z,45.60
2023-03-02T04:02:45.916Z,61.07
2023-03-02T04:03:45.840Z,56.72
2023-03-02T04:04:45.843Z,61.39
2023-03-02T04:05:45.846Z,46.25
2023-03-02T04:06:45.791Z,45.60
2023-03-02T04:07:45.802Z,61.71
2023-03-02T04:08:45.775Z,55.43
2023-03-02T04:09:45.738Z,44.47
2023-03-02T04:10:45.746Z,46.08
2023-03-02T04:11:45.796Z,57.20
2023-03-02T04:12:45.795Z,61.07
2023-03-02T04:13:45.712Z,58.65
2023-03-02T04:14:45.737Z,50.92
2023-03-02T04:15:47.113Z,61.87
2023-03-02T04:16:46.788Z,61.71
2023-03-02T04:17:45.765Z,59.62
2023-03-02T04:18:45.734Z,61.23
2023-03-02T04:19:45.712Z,60.26
2023-03-02T04:20:45.721Z,46.25
2023-03-02T04:21:45.696Z,62.36
2023-03-02T04:22:45.752Z,57.85
2023-03-02T04:23:45.700Z,46.25
2023-03-02T04:24:45.677Z,60.10
2023-03-02T04:25:45.648Z,60.26
2023-03-02T04:26:45.704Z,61.23
2023-03-02T04:27:45.638Z,60.10
2023-03-02T04:28:45.604Z,47.37
2023-03-02T04:29:45.629Z,47.70
2023-03-02T04:30:45.663Z,61.39
2023-03-02T04:31:45.590Z,61.23
2023-03-02T04:32:45.595Z,47.37
2023-03-02T04:33:45.571Z,59.94
2023-03-02T04:34:45.622Z,46.25
2023-03-02T04:35:45.540Z,45.28
2023-03-02T04:36:45.560Z,46.08
2023-03-02T04:37:45.499Z,55.59
2023-03-02T04:38:45.536Z,45.92
2023-03-02T04:39:45.487Z,63.49
2023-03-02T04:40:45.520Z,61.23
2023-03-02T04:41:45.471Z,60.91
2023-03-02T04:42:45.523Z,53.98
2023-03-02T04:43:45.492Z,59.14
2023-03-02T04:44:46.494Z,62.84
2023-03-02T04:45:45.460Z,49.31
2023-03-02T04:46:45.485Z,60.10
2023-03-02T04:47:45.456Z,45.76
2023-03-02T04:48:45.469Z,47.37
2023-03-02T04:49:45.380Z,61.39
2023-03-02T04:50:45.394Z,57.85
2023-03-02T04:51:45.378Z,59.78
2023-03-02T04:52:45.410Z,58.97
2023-03-02T04:53:45.409Z,60.42
2023-03-02T04:54:45.375Z,53.01
2023-03-02T04:55:45.412Z,63.00
2023-03-02T04:56:45.346Z,57.85
2023-03-02T04:57:45.355Z,61.71
2023-03-02T04:58:45.342Z,48.66
2023-03-02T04:59:45.309Z,58.01
2023-03-02T05:00:45.323Z,45.28
2023-03-02T05:01:45.306Z,46.08
2023-03-02T05:02:45.280Z,59.94
2023-03-02T05:03:45.282Z,64.45
2023-03-02T05:04:45.360Z,60.10
2023-03-02T05:05:45.301Z,60.75
2023-03-02T05:06:45.325Z,61.55
2023-03-02T05:07:45.312Z,59.62
2023-03-02T05:08:45.260Z,55.91
2023-03-02T05:09:45.232Z,60.59
2023-03-02T05:10:45.238Z,61.71
2023-03-02T05:11:45.213Z,59.62
2023-03-02T05:12:45.208Z,60.10
2023-03-02T05:13:45.183Z,59.14
2023-03-02T05:14:45.854Z,47.70
2023-03-02T05:15:46.212Z,61.71
2023-03-02T05:16:45.174Z,59.14
2023-03-02T05:17:45.160Z,62.20
2023-03-02T05:18:45.174Z,53.01
2023-03-02T05:19:45.163Z,59.62
2023-03-02T05:20:45.102Z,48.02
2023-03-02T05:21:45.139Z,50.60
2023-03-02T05:22:45.145Z,64.45
2023-03-02T05:23:45.151Z,60.26
2023-03-02T05:24:45.111Z,60.75
2023-03-02T05:25:45.058Z,61.39
2023-03-02T05:26:45.175Z,63.16
2023-03-02T05:27:45.062Z,60.10
2023-03-02T05:28:45.074Z,59.78
2023-03-02T05:29:45.069Z,58.97
2023-03-02T05:30:45.085Z,58.81
2023-03-02T05:31:45.080Z,58.81
2023-03-02T05:32:45.026Z,61.39
2023-03-02T05:33:45.004Z,55.59
2023-03-02T05:34:44.996Z,66.55
2023-03-02T05:35:45.036Z,57.04
2023-03-02T05:36:44.964Z,52.69
2023-03-02T05:37:44.993Z,62.20
2023-03-02T05:38:44.965Z,58.17
2023-03-02T05:39:44.942Z,57.36
2023-03-02T05:40:45.917Z,62.52
2023-03-02T05:41:45.165Z,58.49
2023-03-02T05:42:44.924Z,62.20
2023-03-02T05:43:44.892Z,64.94
2023-03-02T05:44:44.888Z,61.07
2023-03-02T05:45:44.877Z,53.66
2023-03-02T05:46:45.006Z,61.87
2023-03-02T06:31:36.721Z,62.84
2023-03-02T06:32:36.718Z,64.13
2023-03-02T06:42:42.409Z,66.06
2023-03-02T06:43:42.649Z,64.29
2023-03-02T06:44:43.346Z,63.33
2023-03-02T06:45:42.500Z,64.13
2023-03-02T06:50:34.402Z,63.81
2023-03-02T06:51:34.381Z,66.55
2023-03-02T06:53:08.554Z,63.65
2023-03-02T06:53:34.362Z,63.97
2023-03-02T06:54:34.292Z,63.81
2023-03-02T06:55:34.339Z,67.51
2023-03-02T06:56:34.705Z,64.94
2023-03-02T06:59:47.255Z,62.52
2023-03-02T07:00:46.971Z,50.92
2023-03-02T07:02:22.855Z,64.78
2023-03-02T07:02:46.940Z,49.47
2023-03-02T07:03:46.928Z,61.23
2023-03-02T07:04:46.897Z,60.75
2023-03-02T07:05:46.862Z,67.35
2023-03-02T07:06:46.866Z,67.19
2023-03-02T07:07:46.850Z,61.71
2023-03-02T07:08:46.838Z,58.65
2023-03-02T07:48:29.095Z,60.91
2023-03-02T07:49:29.080Z,48.02
2023-03-02T07:50:29.121Z,59.62
2023-03-02T07:51:29.057Z,59.14
2023-03-02T07:52:29.639Z,58.81
2023-03-02T07:53:29.064Z,57.69
2023-03-02T07:54:29.025Z,54.79
2023-03-02T07:55:29.026Z,60.75
2023-03-02T07:56:29.008Z,60.26
2023-03-02T07:57:28.996Z,57.36
2023-03-02T07:58:29.033Z,59.62
2023-03-02T07:59:28.989Z,58.97
2023-03-02T08:00:29.093Z,58.65
2023-03-02T08:01:29.048Z,60.26
2023-03-02T08:02:28.969Z,58.33
2023-03-02T08:03:28.970Z,60.26
2023-03-02T08:04:28.926Z,59.62
2023-03-02T08:05:28.912Z,58.65
2023-03-02T08:06:28.912Z,60.91
2023-03-02T08:07:28.909Z,58.81
2023-03-02T08:08:28.931Z,57.36
2023-03-02T08:09:28.910Z,59.14
2023-03-02T08:10:28.885Z,59.62
2023-03-02T08:11:28.869Z,49.31
2023-03-02T08:12:28.909Z,49.31
2023-03-02T08:13:28.857Z,60.42
2023-03-02T08:14:28.853Z,59.46
2023-03-02T08:15:28.817Z,58.65
2023-03-02T08:16:28.828Z,60.10
2023-03-02T08:17:28.938Z,58.17
2023-03-02T08:18:28.799Z,61.23
2023-03-02T08:19:28.801Z,62.84
2023-03-02T08:20:29.185Z,58.81
2023-03-02T08:21:28.753Z,56.88
2023-03-02T08:29:21.488Z,53.82
2023-03-02T08:30:21.484Z,62.04
2023-03-02T08:31:21.530Z,57.36
2023-03-02T08:32:21.470Z,60.75
2023-03-02T08:33:21.526Z,61.71
2023-03-02T08:34:42.440Z,57.20
2023-03-02T08:35:21.415Z,55.27
2023-03-02T08:36:21.426Z,59.30
2023-03-02T08:37:21.385Z,56.24
2023-03-02T08:40:47.353Z,60.75
2023-03-02T08:41:47.334Z,55.43
2023-03-02T08:42:47.320Z,61.71
2023-03-02T08:43:47.327Z,60.26
2023-03-02T08:44:47.304Z,64.13
2023-03-02T08:45:47.346Z,53.17
2023-03-02T08:46:47.291Z,59.78
2023-03-02T08:47:47.268Z,61.55
2023-03-02T08:48:47.262Z,60.75
2023-03-02T08:49:48.322Z,55.75
2023-03-02T08:50:47.233Z,59.78
2023-03-02T08:51:47.230Z,54.95
2023-03-02T08:52:47.219Z,44.47
2023-03-02T08:53:47.212Z,58.33
2023-03-02T08:54:47.217Z,59.78
2023-03-02T08:55:47.174Z,64.29
2023-03-02T08:56:47.178Z,59.94
2023-03-02T08:57:47.163Z,62.84
2023-03-02T08:58:47.161Z,59.78
2023-03-02T08:59:47.134Z,60.26
2023-03-02T09:00:47.222Z,58.97
2023-03-02T09:01:47.190Z,52.85
2023-03-02T09:02:47.111Z,62.68
2023-03-02T09:03:47.105Z,60.26
2023-03-02T09:04:47.092Z,58.65
2023-03-02T09:05:47.204Z,58.97
2023-03-02T09:07:48.116Z,54.95
2023-03-02T09:08:47.076Z,59.46
2023-03-02T09:09:47.044Z,58.33
2023-03-02T09:10:47.041Z,46.08
2023-03-02T09:11:47.026Z,56.72
2023-03-02T09:12:47.010Z,58.49
2023-03-02T09:13:47.047Z,53.17
2023-03-02T09:14:47.021Z,65.42
2023-03-02T09:19:49.297Z,62.20
2023-03-02T09:20:49.168Z,58.17
2023-03-02T09:24:15.261Z,65.26
2023-03-02T09:25:16.293Z,59.46
2023-03-02T09:26:15.127Z,57.85
2023-03-02T09:27:15.643Z,58.49
2023-03-02T09:28:15.079Z,59.94
2023-03-02T09:29:15.063Z,57.69
2023-03-02T09:30:15.046Z,55.59
2023-03-02T09:31:15.026Z,61.55
2023-03-02T09:32:15.113Z,61.39
2023-03-02T09:33:15.062Z,54.46
2023-03-02T09:34:15.011Z,58.81
2023-03-02T09:35:14.987Z,61.23
2023-03-02T09:36:14.981Z,62.68
2023-03-02T09:37:14.981Z,59.46
2023-03-02T09:38:15.033Z,46.25
2023-03-02T09:39:15.027Z,61.23
2023-03-02T09:40:14.959Z,57.85
2023-03-02T09:41:14.963Z,54.62
2023-03-02T09:42:14.931Z,55.91
2023-03-02T09:43:15.109Z,60.75
2023-03-02T09:44:14.941Z,47.05
2023-03-02T09:45:15.072Z,56.07
2023-03-02T09:46:14.939Z,65.10
2023-03-02T09:47:16.501Z,62.68
2023-03-02T09:48:14.927Z,54.62
2023-03-02T09:49:14.943Z,60.75
2023-03-02T09:57:29.027Z,60.75
2023-03-02T09:58:29.009Z,55.59
2023-03-02T09:59:29.028Z,57.36
2023-03-02T10:00:29.041Z,58.97
2023-03-02T10:01:29.123Z,58.97
2023-03-02T10:02:28.966Z,58.01
2023-03-02T10:03:29.059Z,60.75
2023-03-02T10:04:29.097Z,58.17
2023-03-02T10:05:28.942Z,57.04
2023-03-02T10:06:28.972Z,60.91
2023-03-02T10:07:28.919Z,60.26
2023-03-02T10:08:28.901Z,58.33
2023-03-02T10:09:28.903Z,56.72
2023-03-02T10:10:28.884Z,55.11
2023-03-02T10:11:28.911Z,58.81
2023-03-02T10:12:28.879Z,56.56
2023-03-02T10:13:28.852Z,60.75
2023-03-02T10:14:29.005Z,44.63
2023-03-02T10:15:28.829Z,52.05
2023-03-02T10:16:28.906Z,56.56
2023-03-02T10:17:28.815Z,54.62
2023-03-02T10:18:28.851Z,57.85
2023-03-02T10:19:28.812Z,56.40
2023-03-02T10:20:34.142Z,59.30
2023-03-02T10:21:29.778Z,54.14
2023-03-02T10:22:28.789Z,57.85
2023-03-02T10:23:28.795Z,52.21
2023-03-02T10:24:29.224Z,55.11
2023-03-02T10:25:28.734Z,54.62
2023-03-02T10:26:28.716Z,56.88
2023-03-02T10:27:28.750Z,58.81
2023-03-02T10:28:28.732Z,63.81
2023-03-02T10:29:28.757Z,59.78
2023-03-02T10:30:28.699Z,57.52
2023-03-02T10:31:28.805Z,62.20
2023-03-02T10:32:28.727Z,54.95
2023-03-02T10:33:28.761Z,61.39
2023-03-02T10:34:28.686Z,57.04
2023-03-02T10:35:28.680Z,43.99
2023-03-02T10:36:28.663Z,55.43
2023-03-02T10:37:28.631Z,53.01
2023-03-02T10:38:28.636Z,61.23
2023-03-02T10:39:28.661Z,59.78
2023-03-02T10:40:28.686Z,55.11
2023-03-02T10:41:28.608Z,50.11
2023-03-02T10:42:28.622Z,59.46
2023-03-02T10:43:28.568Z,53.17
2023-03-02T10:44:28.543Z,56.56
2023-03-02T10:45:28.649Z,63.33
2023-03-02T10:46:28.612Z,56.72
2023-03-02T10:47:28.502Z,58.81
2023-03-02T10:48:28.583Z,60.10
2023-03-02T10:49:28.549Z,53.17
2023-03-02T10:50:28.523Z,56.24
2023-03-02T10:51:28.482Z,59.78
2023-03-02T10:52:28.535Z,56.40
2023-03-02T10:53:28.431Z,62.52
2023-03-02T10:54:28.428Z,55.11
2023-03-02T10:55:28.541Z,60.10
2023-03-02T10:56:28.460Z,58.17
2023-03-02T10:57:28.458Z,60.59
2023-03-02T10:58:28.421Z,59.94
2023-03-02T10:59:28.457Z,50.11
2023-03-02T11:00:28.441Z,60.75
2023-03-02T11:01:28.478Z,58.81
2023-03-02T11:02:28.362Z,61.39
2023-03-02T11:03:28.400Z,60.42
2023-03-02T11:04:28.407Z,54.46
2023-03-02T11:05:28.380Z,57.36
2023-03-02T11:06:28.335Z,56.24
2023-03-02T11:07:28.380Z,59.46
2023-03-02T11:08:28.328Z,61.39
2023-03-02T11:09:28.309Z,56.40
2023-03-02T11:10:28.268Z,70.58
2023-03-02T11:11:28.330Z,52.53
2023-03-02T11:12:28.241Z,61.39
2023-03-02T11:13:28.246Z,50.27
2023-03-02T11:14:28.205Z,48.18
2023-03-02T11:15:28.235Z,68.16
2023-03-02T11:16:28.433Z,63.81
2023-03-02T11:17:28.185Z,53.66
2023-03-02T11:18:28.184Z,55.27
2023-03-02T11:19:28.169Z,61.55
2023-03-02T11:20:28.225Z,59.14
2023-03-02T11:21:28.144Z,70.74
2023-03-02T11:22:28.204Z,59.30
2023-03-02T11:23:28.183Z,59.78
2023-03-02T11:24:28.161Z,67.35
2023-03-02T11:25:28.142Z,59.62
2023-03-02T11:26:42.821Z,54.30
2023-03-02T11:27:28.091Z,55.11
2023-03-02T11:28:28.094Z,54.62
2023-03-02T11:29:28.075Z,51.24
2023-03-02T11:30:28.071Z,66.55
2023-03-02T11:31:28.102Z,57.85
2023-03-02T11:32:28.141Z,60.91
2023-03-02T11:33:51.342Z,61.71
2023-03-02T11:38:32.022Z,61.55
2023-03-02T11:39:32.018Z,60.91
2023-03-02T11:40:32.001Z,58.33
2023-03-02T11:41:32.250Z,52.53
2023-03-02T11:42:32.079Z,59.62
2023-03-02T11:43:31.970Z,52.37
2023-03-02T11:44:31.958Z,45.76
2023-03-02T11:45:31.962Z,56.56
2023-03-02T11:46:31.959Z,57.69
2023-03-02T11:47:31.942Z,55.59
2023-03-02T11:48:31.934Z,50.11
2023-03-02T11:49:31.908Z,63.33
2023-03-02T11:50:31.936Z,60.91
2023-03-02T11:51:32.202Z,61.39
2023-03-02T11:52:31.905Z,62.36
2023-03-02T11:53:31.882Z,57.20
2023-03-02T11:54:31.856Z,55.27
2023-03-02T11:55:31.857Z,56.40
2023-03-02T11:56:31.845Z,45.76
2023-03-02T11:57:40.105Z,58.49
2023-03-02T11:58:40.897Z,62.84
2023-03-02T11:59:31.909Z,54.62
2023-03-02T12:00:33.306Z,56.72
2023-03-02T12:01:33.319Z,61.87
2023-03-02T12:02:32.961Z,58.01
2023-03-02T12:03:32.958Z,56.72
2023-03-02T12:04:32.972Z,58.01
2023-03-02T12:05:32.972Z,58.33
2023-03-02T12:06:33.226Z,56.56
2023-03-02T12:07:32.906Z,56.56
2023-03-02T12:08:32.952Z,53.82
2023-03-02T12:09:32.893Z,54.14
2023-03-02T12:10:32.904Z,57.36
2023-03-02T12:11:32.890Z,54.30
2023-03-02T12:12:32.898Z,55.75
2023-03-02T12:13:32.848Z,59.30
2023-03-02T12:14:32.866Z,53.66
2023-03-02T12:15:32.874Z,59.94
2023-03-02T12:16:33.099Z,60.75
2023-03-02T12:17:32.875Z,58.33
2023-03-02T12:18:32.830Z,55.75
2023-03-02T12:19:32.793Z,61.07
2023-03-02T12:20:33.726Z,59.94
2023-03-02T12:21:32.852Z,58.97
2023-03-02T12:22:32.773Z,55.27
2023-03-02T12:23:32.778Z,62.04
2023-03-02T12:24:32.828Z,62.20
2023-03-02T12:25:32.762Z,55.91
2023-03-02T12:26:34.040Z,56.72
2023-03-02T12:27:32.734Z,56.40
2023-03-02T12:28:32.730Z,57.20
2023-03-02T12:29:32.799Z,57.36
2023-03-02T12:30:32.893Z,58.33
2023-03-02T12:31:32.694Z,53.01
2023-03-02T12:32:32.712Z,56.56
2023-03-02T12:33:32.664Z,56.72
2023-03-02T12:34:32.665Z,59.62
2023-03-02T12:35:33.093Z,57.85
2023-03-02T12:36:33.110Z,56.40
2023-03-02T12:37:32.626Z,56.88
2023-03-02T12:38:32.638Z,61.23
2023-03-02T12:39:32.629Z,58.01
2023-03-02T12:40:32.575Z,60.10
2023-03-02T12:41:32.581Z,55.91
2023-03-02T12:42:32.584Z,56.24
2023-03-02T12:43:32.551Z,59.14
2023-03-02T12:44:32.562Z,58.65
2023-03-02T12:45:32.599Z,53.17
2023-03-02T12:46:32.951Z,60.42
2023-03-02T12:47:32.870Z,63.49
2023-03-02T12:48:32.564Z,61.55
2023-03-02T12:49:32.492Z,58.17
2023-03-02T12:50:32.566Z,59.14
2023-03-02T12:51:32.626Z,56.24
2023-03-02T12:52:32.574Z,59.94
2023-03-02T12:53:32.465Z,56.56
2023-03-02T12:54:32.464Z,54.79
2023-03-02T12:55:32.497Z,58.33
2023-03-02T12:56:32.474Z,57.04
2023-03-02T12:57:32.421Z,57.85
2023-03-02T12:58:32.397Z,57.85
2023-03-02T12:59:32.404Z,55.43
2023-03-02T13:00:32.397Z,53.01
2023-03-02T13:01:32.402Z,59.62
2023-03-02T13:02:32.408Z,56.40
2023-03-02T13:03:32.340Z,58.33
2023-03-02T13:04:32.482Z,52.37
2023-03-02T13:05:32.325Z,60.91
2023-03-02T13:06:32.533Z,55.75
2023-03-02T13:07:32.300Z,54.46
2023-03-02T13:08:32.340Z,59.78
2023-03-02T13:09:32.270Z,55.59
2023-03-02T13:10:32.289Z,59.94
2023-03-02T13:11:32.244Z,56.07
2023-03-02T13:12:32.267Z,45.44
2023-03-02T13:13:32.362Z,56.88
2023-03-02T13:14:32.217Z,55.91
2023-03-02T13:15:32.229Z,61.71
2023-03-02T13:16:32.875Z,59.78
2023-03-02T13:17:32.234Z,56.40
2023-03-02T13:18:32.302Z,55.43
2023-03-02T13:19:32.197Z,51.88
2023-03-02T13:20:32.176Z,57.52
2023-03-02T13:21:32.160Z,57.04
2023-03-02T13:22:32.275Z,54.14
2023-03-02T13:23:32.195Z,41.73
2023-03-02T13:24:32.138Z,47.21
2023-03-02T13:25:32.127Z,59.94
2023-03-02T13:26:32.495Z,53.98
2023-03-02T13:27:32.124Z,57.52
2023-03-02T13:28:33.103Z,55.91
2023-03-02T13:29:32.137Z,60.91
2023-03-02T13:30:32.202Z,56.56
2023-03-02T13:31:32.230Z,42.38
2023-03-02T13:32:32.185Z,40.44
2023-03-02T13:33:32.069Z,54.14
2023-03-02T13:34:32.105Z,61.07
2023-03-02T13:35:32.061Z,56.40
2023-03-02T13:36:32.446Z,57.69
2023-03-02T13:37:32.059Z,64.13
2023-03-02T13:38:32.008Z,56.24
2023-03-02T13:39:32.011Z,58.17
2023-03-02T13:40:31.983Z,44.96
2023-03-02T13:41:31.989Z,41.25
2023-03-02T13:42:31.998Z,57.20
2023-03-02T13:43:31.983Z,42.06
2023-03-02T13:44:32.030Z,40.61
2023-03-02T13:45:31.956Z,56.88
2023-03-02T13:46:32.440Z,55.91
2023-03-02T13:47:31.933Z,58.49
2023-03-02T13:48:32.042Z,55.43
2023-03-02T13:49:31.918Z,61.39
2023-03-02T13:50:32.075Z,58.81
2023-03-02T13:51:31.892Z,58.97
2023-03-02T13:52:31.862Z,59.30
2023-03-02T13:53:31.894Z,59.78
2023-03-02T13:54:31.872Z,53.98
2023-03-02T13:55:31.878Z,62.36
2023-03-02T13:56:32.857Z,56.40
2023-03-02T13:57:31.838Z,60.91
2023-03-02T13:58:31.789Z,55.11
2023-03-02T13:59:32.783Z,54.79
2023-03-02T14:00:31.806Z,55.11
2023-03-02T14:01:31.797Z,53.98
2023-03-02T14:02:31.783Z,60.59
2023-03-02T14:03:31.763Z,57.36
2023-03-02T14:04:32.050Z,58.81
2023-03-02T14:05:31.797Z,58.97
2023-03-02T14:06:33.195Z,68.96
2023-03-02T14:07:31.814Z,61.23
2023-03-02T14:08:31.729Z,54.14
2023-03-02T14:09:31.757Z,60.10
2023-03-02T14:10:31.697Z,61.07
2023-03-02T14:11:32.012Z,56.88
2023-03-02T14:12:31.727Z,61.07
2023-03-02T14:13:31.761Z,60.75
2023-03-02T14:14:31.738Z,60.59
2023-03-02T14:15:31.712Z,63.65
2023-03-02T14:16:31.919Z,63.81
2023-03-02T14:17:31.685Z,58.17
2023-03-02T14:18:31.682Z,50.92
2023-03-02T14:19:31.668Z,61.55
2023-03-02T14:20:31.645Z,53.17
2023-03-02T14:21:32.208Z,53.82
2023-03-02T14:22:31.614Z,58.97
2023-03-02T14:23:31.652Z,58.97
2023-03-02T14:24:32.413Z,57.04
2023-03-02T14:25:31.586Z,59.94
2023-03-02T14:26:31.561Z,56.40
2023-03-02T14:27:31.623Z,57.85
2023-03-02T14:28:31.593Z,57.20
2023-03-02T14:29:31.599Z,55.59
2023-03-02T14:30:31.487Z,57.20
2023-03-02T14:31:31.956Z,59.62
2023-03-02T14:32:31.583Z,55.91
2023-03-02T14:33:31.524Z,60.91
2023-03-02T14:34:31.440Z,58.49
2023-03-02T14:35:31.513Z,60.10
2023-03-02T14:36:31.502Z,61.07
2023-03-02T14:37:31.443Z,56.72
2023-03-02T14:38:31.469Z,58.81
2023-03-02T14:39:31.473Z,59.62
2023-03-02T14:40:31.410Z,54.46
2023-03-02T14:41:34.430Z,59.46
2023-03-02T14:42:32.399Z,59.62
2023-03-02T14:43:31.440Z,55.59
2023-03-02T14:44:31.398Z,57.52
2023-03-02T14:45:31.391Z,59.14
2023-03-02T14:46:31.391Z,64.29
2023-03-02T14:47:31.322Z,61.23
2023-03-02T14:48:31.347Z,59.30
2023-03-02T14:49:31.330Z,57.36
2023-03-02T14:50:31.288Z,59.62
2023-03-02T14:51:31.615Z,49.95
2023-03-02T14:52:31.254Z,59.62
2023-03-02T14:53:31.237Z,60.10
2023-03-02T14:54:31.269Z,61.55
2023-03-02T14:55:31.242Z,46.73
2023-03-02T14:56:31.242Z,57.20
2023-03-02T14:57:31.232Z,57.04
2023-03-02T14:58:31.215Z,57.20
2023-03-02T14:59:31.220Z,57.69
2023-03-02T15:00:31.202Z,58.01